Terminal Aerodrome Forecast
Issued by NWS Grand Forks, ND

Home | Current Version | Previous Version | Text Only | Print | Product List | Glossary On
Versions: 1 2 3 4 5 6 7 8 9 10 11 12 13 14 15 16
000
FTUS43 KFGF 271700
TAFFAR
TAF
KFAR 271720Z 2718/2818 18011KT P6SM BKN250
     FM272000 16009KT P6SM BKN050
     FM272300 15008KT P6SM OVC050
     FM280900 16009KT P6SM SCT050
     FM281600 17018G25KT P6SM FEW250=

USA.gov is the U.S. government's official web portal to all federal, state and local government web resources and services.